sensor_id;sensor_type;location;lat;lon;timestamp;P1;durP1;ratioP1;P2;durP2;ratioP2
17059;SDS011;8646;49.716;9.266;2024-03-02T00:01:40;16.97;;;9.13;;
17059;SDS011;8646;49.716;9.266;2024-03-02T00:04:44;20.83;;;9.77;;
17059;SDS011;8646;49.716;9.266;2024-03-02T00:07:52;15.43;;;9.40;;
17059;SDS011;8646;49.716;9.266;2024-03-02T00:10:58;17.30;;;8.73;;
17059;SDS011;8646;49.716;9.266;2024-03-02T00:14:02;15.27;;;9.03;;
17059;SDS011;8646;49.716;9.266;2024-03-02T00:17:05;17.70;;;9.67;;
17059;SDS011;8646;49.716;9.266;2024-03-02T00:20:14;18.40;;;9.83;;
17059;SDS011;8646;49.716;9.266;2024-03-02T00:23:21;17.23;;;9.57;;
17059;SDS011;8646;49.716;9.266;2024-03-02T00:26:25;15.73;;;9.10;;
17059;SDS011;8646;49.716;9.266;2024-03-02T00:29:28;22.93;;;10.57;;
17059;SDS011;8646;49.716;9.266;2024-03-02T00:32:31;15.73;;;8.43;;
17059;SDS011;8646;49.716;9.266;2024-03-02T00:35:35;15.17;;;8.83;;
17059;SDS011;8646;49.716;9.266;2024-03-02T00:38:45;18.30;;;9.03;;
17059;SDS011;8646;49.716;9.266;2024-03-02T00:41:50;16.20;;;9.23;;
17059;SDS011;8646;49.716;9.266;2024-03-02T00:44:53;14.67;;;8.73;;
17059;SDS011;8646;49.716;9.266;2024-03-02T00:47:56;13.90;;;8.37;;
17059;SDS011;8646;49.716;9.266;2024-03-02T00:50:58;15.03;;;8.43;;
17059;SDS011;8646;49.716;9.266;2024-03-02T00:54:01;14.80;;;8.77;;
17059;SDS011;8646;49.716;9.266;2024-03-02T00:57:08;14.67;;;8.90;;
17059;SDS011;8646;49.716;9.266;2024-03-02T01:00:14;15.97;;;9.13;;
17059;SDS011;8646;49.716;9.266;2024-03-02T01:03:19;19.07;;;9.27;;
17059;SDS011;8646;49.716;9.266;2024-03-02T01:06:21;15.63;;;9.00;;
17059;SDS011;8646;49.716;9.266;2024-03-02T01:09:25;19.00;;;10.20;;
17059;SDS011;8646;49.716;9.266;2024-03-02T01:12:29;16.17;;;9.20;;
17059;SDS011;8646;49.716;9.266;2024-03-02T01:15:33;18.40;;;10.40;;
17059;SDS011;8646;49.716;9.266;2024-03-02T01:18:36;16.00;;;9.43;;
17059;SDS011;8646;49.716;9.266;2024-03-02T01:21:38;16.93;;;9.83;;
17059;SDS011;8646;49.716;9.266;2024-03-02T01:24:42;23.00;;;10.17;;
17059;SDS011;8646;49.716;9.266;2024-03-02T01:27:46;17.30;;;10.70;;
17059;SDS011;8646;49.716;9.266;2024-03-02T01:30:50;16.47;;;10.70;;
17059;SDS011;8646;49.716;9.266;2024-03-02T01:33:53;16.53;;;10.27;;
17059;SDS011;8646;49.716;9.266;2024-03-02T01:36:56;18.10;;;9.90;;
17059;SDS011;8646;49.716;9.266;2024-03-02T01:39:59;20.50;;;10.57;;
17059;SDS011;8646;49.716;9.266;2024-03-02T01:43:03;21.57;;;10.80;;
17059;SDS011;8646;49.716;9.266;2024-03-02T01:46:06;19.67;;;11.27;;
17059;SDS011;8646;49.716;9.266;2024-03-02T01:49:10;19.87;;;10.83;;
17059;SDS011;8646;49.716;9.266;2024-03-02T01:52:13;24.07;;;12.30;;
17059;SDS011;8646;49.716;9.266;2024-03-02T01:55:15;20.23;;;11.03;;
17059;SDS011;8646;49.716;9.266;2024-03-02T01:58:19;26.07;;;12.70;;
17059;SDS011;8646;49.716;9.266;2024-03-02T02:01:22;19.43;;;10.93;;
17059;SDS011;8646;49.716;9.266;2024-03-02T02:04:25;24.00;;;11.97;;
17059;SDS011;8646;49.716;9.266;2024-03-02T02:07:29;23.30;;;11.63;;
17059;SDS011;8646;49.716;9.266;2024-03-02T02:10:32;24.03;;;12.43;;
17059;SDS011;8646;49.716;9.266;2024-03-02T02:13:36;26.87;;;13.13;;
17059;SDS011;8646;49.716;9.266;2024-03-02T02:16:39;23.20;;;12.47;;
17059;SDS011;8646;49.716;9.266;2024-03-02T02:19:41;21.13;;;11.97;;
17059;SDS011;8646;49.716;9.266;2024-03-02T02:22:58;19.97;;;11.23;;
17059;SDS011;8646;49.716;9.266;2024-03-02T02:26:02;24.40;;;12.43;;
17059;SDS011;8646;49.716;9.266;2024-03-02T02:29:06;26.07;;;12.90;;
17059;SDS011;8646;49.716;9.266;2024-03-02T02:32:08;21.53;;;11.27;;
17059;SDS011;8646;49.716;9.266;2024-03-02T02:35:11;21.90;;;11.10;;
17059;SDS011;8646;49.716;9.266;2024-03-02T02:38:16;21.93;;;11.53;;
17059;SDS011;8646;49.716;9.266;2024-03-02T02:41:20;20.80;;;11.37;;
17059;SDS011;8646;49.716;9.266;2024-03-02T02:44:23;22.87;;;12.20;;
17059;SDS011;8646;49.716;9.266;2024-03-02T02:47:26;25.43;;;11.50;;
17059;SDS011;8646;49.716;9.266;2024-03-02T02:50:30;24.23;;;12.13;;
17059;SDS011;8646;49.716;9.266;2024-03-02T02:53:34;23.60;;;11.77;;
17059;SDS011;8646;49.716;9.266;2024-03-02T02:56:41;22.73;;;11.57;;
17059;SDS011;8646;49.716;9.266;2024-03-02T02:59:44;23.43;;;12.00;;
17059;SDS011;8646;49.716;9.266;2024-03-02T03:02:47;23.53;;;11.20;;
17059;SDS011;8646;49.716;9.266;2024-03-02T03:05:52;21.73;;;11.13;;
17059;SDS011;8646;49.716;9.266;2024-03-02T03:08:56;19.50;;;10.37;;
17059;SDS011;8646;49.716;9.266;2024-03-02T03:11:59;22.47;;;11.33;;
17059;SDS011;8646;49.716;9.266;2024-03-02T03:15:02;27.67;;;12.33;;
17059;SDS011;8646;49.716;9.266;2024-03-02T03:18:07;22.60;;;11.70;;
17059;SDS011;8646;49.716;9.266;2024-03-02T03:21:11;24.33;;;12.27;;
17059;SDS011;8646;49.716;9.266;2024-03-02T03:24:16;21.83;;;11.50;;
17059;SDS011;8646;49.716;9.266;2024-03-02T03:27:19;20.83;;;11.07;;
17059;SDS011;8646;49.716;9.266;2024-03-02T03:30:22;18.73;;;10.30;;
17059;SDS011;8646;49.716;9.266;2024-03-02T03:33:24;21.23;;;10.80;;
17059;SDS011;8646;49.716;9.266;2024-03-02T03:36:27;25.83;;;12.10;;
17059;SDS011;8646;49.716;9.266;2024-03-02T03:39:31;26.53;;;11.83;;
17059;SDS011;8646;49.716;9.266;2024-03-02T03:42:37;24.53;;;12.00;;
17059;SDS011;8646;49.716;9.266;2024-03-02T03:45:41;23.33;;;10.97;;
17059;SDS011;8646;49.716;9.266;2024-03-02T03:48:43;26.17;;;13.03;;
17059;SDS011;8646;49.716;9.266;2024-03-02T03:51:46;32.00;;;13.50;;
17059;SDS011;8646;49.716;9.266;2024-03-02T03:54:50;30.93;;;13.17;;
17059;SDS011;8646;49.716;9.266;2024-03-02T03:57:54;25.43;;;12.83;;
17059;SDS011;8646;49.716;9.266;2024-03-02T04:00:57;28.73;;;14.03;;
17059;SDS011;8646;49.716;9.266;2024-03-02T04:04:00;24.17;;;12.57;;
17059;SDS011;8646;49.716;9.266;2024-03-02T04:07:03;33.83;;;14.33;;
17059;SDS011;8646;49.716;9.266;2024-03-02T04:10:08;29.90;;;13.53;;
17059;SDS011;8646;49.716;9.266;2024-03-02T04:13:14;30.20;;;14.73;;
17059;SDS011;8646;49.716;9.266;2024-03-02T04:16:16;31.23;;;14.27;;
17059;SDS011;8646;49.716;9.266;2024-03-02T04:19:19;36.20;;;15.97;;
17059;SDS011;8646;49.716;9.266;2024-03-02T04:22:22;31.23;;;14.30;;
17059;SDS011;8646;49.716;9.266;2024-03-02T04:25:27;32.40;;;15.00;;
17059;SDS011;8646;49.716;9.266;2024-03-02T04:28:30;32.67;;;14.03;;
17059;SDS011;8646;49.716;9.266;2024-03-02T04:31:33;32.30;;;15.47;;
17059;SDS011;8646;49.716;9.266;2024-03-02T04:34:35;35.43;;;15.60;;
17059;SDS011;8646;49.716;9.266;2024-03-02T04:37:38;32.20;;;15.33;;
17059;SDS011;8646;49.716;9.266;2024-03-02T04:40:42;36.63;;;16.00;;
17059;SDS011;8646;49.716;9.266;2024-03-02T04:43:45;34.33;;;15.03;;
17059;SDS011;8646;49.716;9.266;2024-03-02T04:46:48;31.33;;;14.57;;
17059;SDS011;8646;49.716;9.266;2024-03-02T04:49:51;38.10;;;16.00;;
17059;SDS011;8646;49.716;9.266;2024-03-02T04:52:54;39.50;;;15.77;;
17059;SDS011;8646;49.716;9.266;2024-03-02T04:55:58;40.30;;;17.90;;
17059;SDS011;8646;49.716;9.266;2024-03-02T04:59:21;38.20;;;16.30;;
17059;SDS011;8646;49.716;9.266;2024-03-02T05:02:24;35.40;;;16.07;;
17059;SDS011;8646;49.716;9.266;2024-03-02T05:05:27;34.70;;;16.03;;
17059;SDS011;8646;49.716;9.266;2024-03-02T05:08:29;37.50;;;16.30;;
17059;SDS011;8646;49.716;9.266;2024-03-02T05:11:33;30.93;;;13.13;;
17059;SDS011;8646;49.716;9.266;2024-03-02T05:15:04;28.50;;;13.00;;
17059;SDS011;8646;49.716;9.266;2024-03-02T05:18:08;17.30;;;7.53;;
17059;SDS011;8646;49.716;9.266;2024-03-02T05:21:11;31.60;;;12.10;;
17059;SDS011;8646;49.716;9.266;2024-03-02T05:24:14;35.27;;;14.93;;
17059;SDS011;8646;49.716;9.266;2024-03-02T05:27:18;27.87;;;12.80;;
17059;SDS011;8646;49.716;9.266;2024-03-02T05:30:21;37.63;;;16.53;;
17059;SDS011;8646;49.716;9.266;2024-03-02T05:33:24;32.23;;;13.00;;
17059;SDS011;8646;49.716;9.266;2024-03-02T05:36:26;33.50;;;15.53;;
17059;SDS011;8646;49.716;9.266;2024-03-02T05:39:29;36.90;;;16.63;;
17059;SDS011;8646;49.716;9.266;2024-03-02T05:42:33;40.40;;;18.27;;
17059;SDS011;8646;49.716;9.266;2024-03-02T05:45:36;43.10;;;19.87;;
17059;SDS011;8646;49.716;9.266;2024-03-02T05:48:39;47.67;;;23.27;;
17059;SDS011;8646;49.716;9.266;2024-03-02T05:51:42;46.93;;;18.93;;
17059;SDS011;8646;49.716;9.266;2024-03-02T05:54:45;40.57;;;18.07;;
17059;SDS011;8646;49.716;9.266;2024-03-02T05:57:49;36.73;;;18.87;;
17059;SDS011;8646;49.716;9.266;2024-03-02T06:01:04;36.53;;;16.00;;
17059;SDS011;8646;49.716;9.266;2024-03-02T06:04:07;38.00;;;17.90;;
17059;SDS011;8646;49.716;9.266;2024-03-02T06:07:10;29.80;;;12.80;;
17059;SDS011;8646;49.716;9.266;2024-03-02T06:10:12;31.30;;;14.57;;
17059;SDS011;8646;49.716;9.266;2024-03-02T06:13:17;32.40;;;16.33;;
17059;SDS011;8646;49.716;9.266;2024-03-02T06:16:20;33.63;;;14.53;;
17059;SDS011;8646;49.716;9.266;2024-03-02T06:19:22;26.33;;;11.90;;
17059;SDS011;8646;49.716;9.266;2024-03-02T06:22:25;33.90;;;15.87;;
17059;SDS011;8646;49.716;9.266;2024-03-02T06:25:28;35.73;;;15.70;;
17059;SDS011;8646;49.716;9.266;2024-03-02T06:28:32;27.60;;;12.87;;
17059;SDS011;8646;49.716;9.266;2024-03-02T06:31:34;31.53;;;15.03;;
17059;SDS011;8646;49.716;9.266;2024-03-02T06:34:37;27.70;;;14.97;;
17059;SDS011;8646;49.716;9.266;2024-03-02T06:37:40;37.80;;;17.73;;
17059;SDS011;8646;49.716;9.266;2024-03-02T06:40:43;35.73;;;16.87;;
17059;SDS011;8646;49.716;9.266;2024-03-02T06:43:47;31.40;;;15.67;;
17059;SDS011;8646;49.716;9.266;2024-03-02T06:46:49;38.77;;;17.23;;
17059;SDS011;8646;49.716;9.266;2024-03-02T06:49:52;36.87;;;16.27;;
17059;SDS011;8646;49.716;9.266;2024-03-02T06:52:55;35.87;;;16.20;;
17059;SDS011;8646;49.716;9.266;2024-03-02T06:55:58;35.83;;;16.57;;
17059;SDS011;8646;49.716;9.266;2024-03-02T06:59:02;32.70;;;15.13;;
17059;SDS011;8646;49.716;9.266;2024-03-02T07:02:05;37.57;;;18.03;;
17059;SDS011;8646;49.716;9.266;2024-03-02T07:05:10;40.70;;;17.70;;
17059;SDS011;8646;49.716;9.266;2024-03-02T07:08:13;40.77;;;20.10;;
17059;SDS011;8646;49.716;9.266;2024-03-02T07:11:15;34.50;;;16.83;;
17059;SDS011;8646;49.716;9.266;2024-03-02T07:14:20;35.80;;;17.27;;
17059;SDS011;8646;49.716;9.266;2024-03-02T07:17:23;21.93;;;10.27;;
17059;SDS011;8646;49.716;9.266;2024-03-02T07:20:26;32.47;;;16.27;;
17059;SDS011;8646;49.716;9.266;2024-03-02T07:23:29;24.77;;;13.00;;
17059;SDS011;8646;49.716;9.266;2024-03-02T07:26:32;25.00;;;11.23;;
17059;SDS011;8646;49.716;9.266;2024-03-02T07:29:40;27.20;;;10.17;;
17059;SDS011;8646;49.716;9.266;2024-03-02T07:32:42;34.20;;;14.50;;
17059;SDS011;8646;49.716;9.266;2024-03-02T07:35:47;27.20;;;11.73;;
17059;SDS011;8646;49.716;9.266;2024-03-02T07:38:50;33.57;;;17.30;;
17059;SDS011;8646;49.716;9.266;2024-03-02T07:41:52;24.23;;;12.70;;
17059;SDS011;8646;49.716;9.266;2024-03-02T07:44:57;25.77;;;12.67;;
17059;SDS011;8646;49.716;9.266;2024-03-02T07:48:01;26.90;;;13.50;;
17059;SDS011;8646;49.716;9.266;2024-03-02T07:51:05;28.33;;;14.17;;
17059;SDS011;8646;49.716;9.266;2024-03-02T07:54:08;29.03;;;14.37;;
17059;SDS011;8646;49.716;9.266;2024-03-02T07:57:11;22.83;;;11.30;;
17059;SDS011;8646;49.716;9.266;2024-03-02T08:00:15;26.93;;;11.30;;
17059;SDS011;8646;49.716;9.266;2024-03-02T08:03:18;29.07;;;15.20;;
17059;SDS011;8646;49.716;9.266;2024-03-02T08:06:21;29.27;;;15.63;;
17059;SDS011;8646;49.716;9.266;2024-03-02T08:09:24;39.13;;;19.10;;
17059;SDS011;8646;49.716;9.266;2024-03-02T08:12:27;27.30;;;13.67;;
17059;SDS011;8646;49.716;9.266;2024-03-02T08:15:31;21.50;;;9.73;;
17059;SDS011;8646;49.716;9.266;2024-03-02T08:18:34;22.63;;;11.37;;
17059;SDS011;8646;49.716;9.266;2024-03-02T08:21:37;26.43;;;14.13;;
17059;SDS011;8646;49.716;9.266;2024-03-02T08:24:40;11.60;;;6.17;;
17059;SDS011;8646;49.716;9.266;2024-03-02T08:27:43;19.60;;;9.33;;
17059;SDS011;8646;49.716;9.266;2024-03-02T08:30:47;19.17;;;10.57;;
17059;SDS011;8646;49.716;9.266;2024-03-02T08:33:50;21.30;;;11.47;;
17059;SDS011;8646;49.716;9.266;2024-03-02T08:36:52;15.97;;;7.90;;
17059;SDS011;8646;49.716;9.266;2024-03-02T08:39:55;22.67;;;11.63;;
17059;SDS011;8646;49.716;9.266;2024-03-02T08:42:58;21.40;;;11.17;;
17059;SDS011;8646;49.716;9.266;2024-03-02T08:46:03;18.23;;;7.77;;
17059;SDS011;8646;49.716;9.266;2024-03-02T08:49:06;23.80;;;10.70;;
17059;SDS011;8646;49.716;9.266;2024-03-02T08:52:09;21.87;;;12.20;;
17059;SDS011;8646;49.716;9.266;2024-03-02T08:55:11;15.53;;;8.27;;
17059;SDS011;8646;49.716;9.266;2024-03-02T08:58:14;21.93;;;11.83;;
17059;SDS011;8646;49.716;9.266;2024-03-02T09:01:19;17.50;;;9.03;;
17059;SDS011;8646;49.716;9.266;2024-03-02T09:04:22;23.20;;;10.80;;
17059;SDS011;8646;49.716;9.266;2024-03-02T09:07:28;22.67;;;11.90;;
17059;SDS011;8646;49.716;9.266;2024-03-02T09:10:31;16.60;;;8.77;;
17059;SDS011;8646;49.716;9.266;2024-03-02T09:13:34;23.33;;;11.03;;
17059;SDS011;8646;49.716;9.266;2024-03-02T09:16:38;24.73;;;12.63;;
17059;SDS011;8646;49.716;9.266;2024-03-02T09:19:41;24.47;;;13.00;;
17059;SDS011;8646;49.716;9.266;2024-03-02T09:22:43;8.77;;;4.20;;
17059;SDS011;8646;49.716;9.266;2024-03-02T09:25:48;21.20;;;10.07;;
17059;SDS011;8646;49.716;9.266;2024-03-02T09:28:51;20.73;;;9.47;;
17059;SDS011;8646;49.716;9.266;2024-03-02T09:31:55;18.63;;;8.17;;
17059;SDS011;8646;49.716;9.266;2024-03-02T09:34:58;21.77;;;10.47;;
17059;SDS011;8646;49.716;9.266;2024-03-02T09:38:01;24.60;;;12.67;;
17059;SDS011;8646;49.716;9.266;2024-03-02T09:41:04;20.97;;;10.87;;
17059;SDS011;8646;49.716;9.266;2024-03-02T09:44:07;23.03;;;10.90;;
17059;SDS011;8646;49.716;9.266;2024-03-02T09:47:12;21.67;;;9.47;;
17059;SDS011;8646;49.716;9.266;2024-03-02T09:50:15;15.00;;;6.03;;
17059;SDS011;8646;49.716;9.266;2024-03-02T09:53:18;15.03;;;7.53;;
17059;SDS011;8646;49.716;9.266;2024-03-02T09:56:21;12.23;;;6.17;;
17059;SDS011;8646;49.716;9.266;2024-03-02T09:59:24;13.80;;;7.60;;
17059;SDS011;8646;49.716;9.266;2024-03-02T10:02:30;24.03;;;12.00;;
17059;SDS011;8646;49.716;9.266;2024-03-02T10:05:33;24.53;;;12.07;;
17059;SDS011;8646;49.716;9.266;2024-03-02T10:08:42;19.37;;;9.97;;
17059;SDS011;8646;49.716;9.266;2024-03-02T10:11:45;19.13;;;9.90;;
17059;SDS011;8646;49.716;9.266;2024-03-02T10:14:48;18.50;;;10.07;;
17059;SDS011;8646;49.716;9.266;2024-03-02T10:17:54;19.37;;;9.73;;
17059;SDS011;8646;49.716;9.266;2024-03-02T10:20:57;22.80;;;11.57;;
17059;SDS011;8646;49.716;9.266;2024-03-02T10:24:15;16.50;;;8.67;;
17059;SDS011;8646;49.716;9.266;2024-03-02T10:27:22;16.50;;;9.17;;
17059;SDS011;8646;49.716;9.266;2024-03-02T10:30:26;16.80;;;7.27;;
17059;SDS011;8646;49.716;9.266;2024-03-02T10:33:30;20.67;;;6.30;;
17059;SDS011;8646;49.716;9.266;2024-03-02T10:36:33;20.00;;;10.83;;
17059;SDS011;8646;49.716;9.266;2024-03-02T10:39:37;21.13;;;9.77;;
17059;SDS011;8646;49.716;9.266;2024-03-02T10:42:42;15.33;;;8.97;;
17059;SDS011;8646;49.716;9.266;2024-03-02T10:45:47;11.33;;;5.57;;
17059;SDS011;8646;49.716;9.266;2024-03-02T10:48:54;22.50;;;9.10;;
17059;SDS011;8646;49.716;9.266;2024-03-02T10:51:57;13.60;;;7.40;;
17059;SDS011;8646;49.716;9.266;2024-03-02T10:55:00;15.50;;;7.37;;
17059;SDS011;8646;49.716;9.266;2024-03-02T10:58:07;14.97;;;8.07;;
17059;SDS011;8646;49.716;9.266;2024-03-02T11:01:14;13.40;;;7.63;;
17059;SDS011;8646;49.716;9.266;2024-03-02T11:04:19;12.87;;;7.50;;
17059;SDS011;8646;49.716;9.266;2024-03-02T11:07:23;12.00;;;5.83;;
17059;SDS011;8646;49.716;9.266;2024-03-02T11:10:28;14.60;;;7.63;;
17059;SDS011;8646;49.716;9.266;2024-03-02T11:13:36;12.90;;;7.23;;
17059;SDS011;8646;49.716;9.266;2024-03-02T11:16:42;14.30;;;6.83;;
17059;SDS011;8646;49.716;9.266;2024-03-02T11:19:48;10.23;;;5.20;;
17059;SDS011;8646;49.716;9.266;2024-03-02T11:22:52;10.77;;;5.90;;
17059;SDS011;8646;49.716;9.266;2024-03-02T11:25:55;15.37;;;7.83;;
17059;SDS011;8646;49.716;9.266;2024-03-02T11:29:32;13.60;;;7.47;;
17059;SDS011;8646;49.716;9.266;2024-03-02T11:32:45;13.47;;;6.30;;
17059;SDS011;8646;49.716;9.266;2024-03-02T11:35:59;11.87;;;6.30;;
17059;SDS011;8646;49.716;9.266;2024-03-02T11:39:03;9.70;;;4.93;;
17059;SDS011;8646;49.716;9.266;2024-03-02T11:42:07;8.00;;;5.00;;
17059;SDS011;8646;49.716;9.266;2024-03-02T11:45:10;12.90;;;5.73;;
17059;SDS011;8646;49.716;9.266;2024-03-02T11:48:14;9.20;;;5.70;;
17059;SDS011;8646;49.716;9.266;2024-03-02T11:51:19;10.87;;;5.50;;
17059;SDS011;8646;49.716;9.266;2024-03-02T11:54:21;10.70;;;5.60;;
17059;SDS011;8646;49.716;9.266;2024-03-02T11:57:24;10.57;;;5.50;;
17059;SDS011;8646;49.716;9.266;2024-03-02T12:00:29;10.07;;;4.70;;
17059;SDS011;8646;49.716;9.266;2024-03-02T12:03:32;10.90;;;5.83;;
17059;SDS011;8646;49.716;9.266;2024-03-02T12:06:36;6.97;;;3.73;;
17059;SDS011;8646;49.716;9.266;2024-03-02T12:09:40;6.30;;;3.43;;
17059;SDS011;8646;49.716;9.266;2024-03-02T12:12:42;10.20;;;2.57;;
17059;SDS011;8646;49.716;9.266;2024-03-02T12:15:45;3.70;;;2.30;;
17059;SDS011;8646;49.716;9.266;2024-03-02T12:18:48;5.83;;;3.53;;
17059;SDS011;8646;49.716;9.266;2024-03-02T12:21:52;5.03;;;3.30;;
17059;SDS011;8646;49.716;9.266;2024-03-02T12:24:55;5.77;;;2.27;;
17059;SDS011;8646;49.716;9.266;2024-03-02T12:27:59;6.77;;;3.57;;
17059;SDS011;8646;49.716;9.266;2024-03-02T12:31:04;7.37;;;3.97;;
17059;SDS011;8646;49.716;9.266;2024-03-02T12:34:07;9.37;;;4.97;;
17059;SDS011;8646;49.716;9.266;2024-03-02T12:37:13;9.03;;;4.87;;
17059;SDS011;8646;49.716;9.266;2024-03-02T12:40:16;5.80;;;3.30;;
17059;SDS011;8646;49.716;9.266;2024-03-02T12:43:20;3.43;;;2.47;;
17059;SDS011;8646;49.716;9.266;2024-03-02T12:46:25;3.20;;;2.00;;
17059;SDS011;8646;49.716;9.266;2024-03-02T12:49:28;4.47;;;2.20;;
17059;SDS011;8646;49.716;9.266;2024-03-02T12:52:33;2.27;;;1.43;;
17059;SDS011;8646;49.716;9.266;2024-03-02T12:55:37;3.63;;;1.87;;
17059;SDS011;8646;49.716;9.266;2024-03-02T12:58:40;4.07;;;2.17;;
17059;SDS011;8646;49.716;9.266;2024-03-02T13:01:49;3.93;;;2.00;;
17059;SDS011;8646;49.716;9.266;2024-03-02T13:04:53;5.90;;;3.17;;
17059;SDS011;8646;49.716;9.266;2024-03-02T13:07:58;5.40;;;3.30;;
17059;SDS011;8646;49.716;9.266;2024-03-02T13:11:02;4.53;;;2.93;;
17059;SDS011;8646;49.716;9.266;2024-03-02T13:14:07;5.50;;;3.17;;
17059;SDS011;8646;49.716;9.266;2024-03-02T13:17:10;6.10;;;3.30;;
17059;SDS011;8646;49.716;9.266;2024-03-02T13:20:15;4.90;;;3.13;;
17059;SDS011;8646;49.716;9.266;2024-03-02T13:23:21;5.40;;;2.90;;
17059;SDS011;8646;49.716;9.266;2024-03-02T13:26:23;5.67;;;2.93;;
17059;SDS011;8646;49.716;9.266;2024-03-02T13:29:26;4.50;;;2.87;;
17059;SDS011;8646;49.716;9.266;2024-03-02T13:32:29;7.60;;;2.90;;
17059;SDS011;8646;49.716;9.266;2024-03-02T13:35:32;4.60;;;2.77;;
17059;SDS011;8646;49.716;9.266;2024-03-02T13:38:36;4.03;;;2.27;;
17059;SDS011;8646;49.716;9.266;2024-03-02T13:41:39;4.17;;;2.23;;
17059;SDS011;8646;49.716;9.266;2024-03-02T13:44:42;4.57;;;2.17;;
17059;SDS011;8646;49.716;9.266;2024-03-02T13:47:46;2.10;;;1.70;;
17059;SDS011;8646;49.716;9.266;2024-03-02T13:50:49;4.63;;;2.30;;
17059;SDS011;8646;49.716;9.266;2024-03-02T13:53:53;3.97;;;2.10;;
17059;SDS011;8646;49.716;9.266;2024-03-02T13:56:56;4.50;;;1.80;;
17059;SDS011;8646;49.716;9.266;2024-03-02T13:59:59;5.67;;;1.77;;
17059;SDS011;8646;49.716;9.266;2024-03-02T14:03:04;5.30;;;2.20;;
17059;SDS011;8646;49.716;9.266;2024-03-02T14:06:08;2.57;;;1.73;;
17059;SDS011;8646;49.716;9.266;2024-03-02T14:09:12;3.53;;;2.23;;
17059;SDS011;8646;49.716;9.266;2024-03-02T14:12:15;2.40;;;1.50;;
17059;SDS011;8646;49.716;9.266;2024-03-02T14:15:18;1.93;;;1.30;;
17059;SDS011;8646;49.716;9.266;2024-03-02T14:18:22;2.93;;;1.63;;
17059;SDS011;8646;49.716;9.266;2024-03-02T14:21:25;2.70;;;1.30;;
17059;SDS011;8646;49.716;9.266;2024-03-02T14:24:29;1.70;;;1.17;;
17059;SDS011;8646;49.716;9.266;2024-03-02T14:27:32;2.90;;;1.90;;
17059;SDS011;8646;49.716;9.266;2024-03-02T14:30:55;4.10;;;1.50;;
17059;SDS011;8646;49.716;9.266;2024-03-02T14:33:58;6.40;;;1.10;;
17059;SDS011;8646;49.716;9.266;2024-03-02T14:37:01;4.10;;;2.70;;
17059;SDS011;8646;49.716;9.266;2024-03-02T14:40:06;2.33;;;1.43;;
17059;SDS011;8646;49.716;9.266;2024-03-02T14:43:11;1.80;;;1.47;;
17059;SDS011;8646;49.716;9.266;2024-03-02T14:46:13;2.13;;;1.20;;
17059;SDS011;8646;49.716;9.266;2024-03-02T14:49:17;2.00;;;1.33;;
17059;SDS011;8646;49.716;9.266;2024-03-02T14:52:20;2.57;;;0.90;;
17059;SDS011;8646;49.716;9.266;2024-03-02T14:55:24;1.80;;;0.87;;
17059;SDS011;8646;49.716;9.266;2024-03-02T14:58:27;2.10;;;1.00;;
17059;SDS011;8646;49.716;9.266;2024-03-02T15:01:29;1.27;;;0.83;;
17059;SDS011;8646;49.716;9.266;2024-03-02T15:04:32;1.97;;;1.07;;
17059;SDS011;8646;49.716;9.266;2024-03-02T15:07:35;1.00;;;0.60;;
17059;SDS011;8646;49.716;9.266;2024-03-02T15:10:40;0.93;;;0.73;;
17059;SDS011;8646;49.716;9.266;2024-03-02T15:13:46;1.23;;;0.93;;
17059;SDS011;8646;49.716;9.266;2024-03-02T15:16:48;2.37;;;1.53;;
17059;SDS011;8646;49.716;9.266;2024-03-02T15:19:51;3.43;;;2.10;;
17059;SDS011;8646;49.716;9.266;2024-03-02T15:22:54;1.90;;;1.40;;
17059;SDS011;8646;49.716;9.266;2024-03-02T15:25:58;3.60;;;2.27;;
17059;SDS011;8646;49.716;9.266;2024-03-02T15:29:01;4.73;;;2.80;;
17059;SDS011;8646;49.716;9.266;2024-03-02T15:32:04;6.07;;;2.67;;
17059;SDS011;8646;49.716;9.266;2024-03-02T15:35:08;5.67;;;3.00;;
17059;SDS011;8646;49.716;9.266;2024-03-02T15:38:12;6.97;;;2.20;;
17059;SDS011;8646;49.716;9.266;2024-03-02T15:41:33;1.67;;;1.03;;
17059;SDS011;8646;49.716;9.266;2024-03-02T15:44:36;2.10;;;1.20;;
17059;SDS011;8646;49.716;9.266;2024-03-02T15:47:42;1.97;;;1.00;;
17059;SDS011;8646;49.716;9.266;2024-03-02T15:50:45;2.37;;;1.40;;
17059;SDS011;8646;49.716;9.266;2024-03-02T15:53:48;3.87;;;2.47;;
17059;SDS011;8646;49.716;9.266;2024-03-02T15:56:52;1.83;;;1.30;;
17059;SDS011;8646;49.716;9.266;2024-03-02T15:59:55;2.43;;;1.27;;
17059;SDS011;8646;49.716;9.266;2024-03-02T16:02:57;2.83;;;1.47;;
17059;SDS011;8646;49.716;9.266;2024-03-02T16:06:00;5.00;;;1.50;;
17059;SDS011;8646;49.716;9.266;2024-03-02T16:09:03;2.10;;;1.33;;
17059;SDS011;8646;49.716;9.266;2024-03-02T16:12:12;2.70;;;1.70;;
17059;SDS011;8646;49.716;9.266;2024-03-02T16:15:14;2.63;;;1.53;;
17059;SDS011;8646;49.716;9.266;2024-03-02T16:18:17;6.77;;;2.20;;
17059;SDS011;8646;49.716;9.266;2024-03-02T16:21:20;3.77;;;2.20;;
17059;SDS011;8646;49.716;9.266;2024-03-02T16:24:26;3.73;;;2.10;;
17059;SDS011;8646;49.716;9.266;2024-03-02T16:27:30;2.87;;;1.77;;
17059;SDS011;8646;49.716;9.266;2024-03-02T16:30:33;2.77;;;1.70;;
17059;SDS011;8646;49.716;9.266;2024-03-02T16:33:36;3.80;;;2.27;;
17059;SDS011;8646;49.716;9.266;2024-03-02T16:36:40;2.40;;;1.70;;
17059;SDS011;8646;49.716;9.266;2024-03-02T16:39:44;6.83;;;2.70;;
17059;SDS011;8646;49.716;9.266;2024-03-02T16:42:48;2.37;;;1.70;;
17059;SDS011;8646;49.716;9.266;2024-03-02T16:45:51;3.23;;;1.70;;
17059;SDS011;8646;49.716;9.266;2024-03-02T16:48:54;2.57;;;1.50;;
17059;SDS011;8646;49.716;9.266;2024-03-02T16:51:56;11.77;;;3.10;;
17059;SDS011;8646;49.716;9.266;2024-03-02T16:54:59;2.47;;;1.50;;
17059;SDS011;8646;49.716;9.266;2024-03-02T16:58:07;3.60;;;1.70;;
17059;SDS011;8646;49.716;9.266;2024-03-02T17:01:09;4.73;;;1.90;;
17059;SDS011;8646;49.716;9.266;2024-03-02T17:04:12;5.13;;;2.50;;
17059;SDS011;8646;49.716;9.266;2024-03-02T17:07:15;4.63;;;2.20;;
17059;SDS011;8646;49.716;9.266;2024-03-02T17:10:18;8.33;;;4.13;;
17059;SDS011;8646;49.716;9.266;2024-03-02T17:13:22;6.50;;;3.80;;
17059;SDS011;8646;49.716;9.266;2024-03-02T17:16:25;4.47;;;2.63;;
17059;SDS011;8646;49.716;9.266;2024-03-02T17:19:28;5.37;;;3.17;;
17059;SDS011;8646;49.716;9.266;2024-03-02T17:22:31;3.57;;;2.00;;
17059;SDS011;8646;49.716;9.266;2024-03-02T17:25:33;4.30;;;2.80;;
17059;SDS011;8646;49.716;9.266;2024-03-02T17:28:37;5.00;;;2.20;;
17059;SDS011;8646;49.716;9.266;2024-03-02T17:31:42;6.93;;;3.20;;
17059;SDS011;8646;49.716;9.266;2024-03-02T17:34:45;10.73;;;4.77;;
17059;SDS011;8646;49.716;9.266;2024-03-02T17:37:47;5.53;;;3.00;;
17059;SDS011;8646;49.716;9.266;2024-03-02T17:40:52;7.53;;;4.10;;
17059;SDS011;8646;49.716;9.266;2024-03-02T17:43:56;6.07;;;3.57;;
17059;SDS011;8646;49.716;9.266;2024-03-02T17:46:59;5.87;;;3.43;;
17059;SDS011;8646;49.716;9.266;2024-03-02T17:50:02;10.07;;;4.80;;
17059;SDS011;8646;49.716;9.266;2024-03-02T17:53:05;5.03;;;2.90;;
17059;SDS011;8646;49.716;9.266;2024-03-02T17:56:09;4.93;;;3.00;;
17059;SDS011;8646;49.716;9.266;2024-03-02T17:59:13;7.30;;;3.23;;
17059;SDS011;8646;49.716;9.266;2024-03-02T18:02:16;27.67;;;12.03;;
17059;SDS011;8646;49.716;9.266;2024-03-02T18:05:19;30.77;;;12.10;;
17059;SDS011;8646;49.716;9.266;2024-03-02T18:08:21;7.63;;;3.90;;
17059;SDS011;8646;49.716;9.266;2024-03-02T18:11:24;6.53;;;3.57;;
17059;SDS011;8646;49.716;9.266;2024-03-02T18:14:28;6.10;;;3.43;;
17059;SDS011;8646;49.716;9.266;2024-03-02T18:17:32;14.63;;;7.23;;
17059;SDS011;8646;49.716;9.266;2024-03-02T18:20:36;11.07;;;6.27;;
17059;SDS011;8646;49.716;9.266;2024-03-02T18:23:39;16.90;;;6.80;;
17059;SDS011;8646;49.716;9.266;2024-03-02T18:26:43;11.47;;;6.70;;